Details From CYUL - Montreal Pierre E Trudeau Intl
To CYVM - Qikiqtarjuaq
Flight Number -
Tags Generated
Created
Modified
Stats Distance 1,361 nm / 2,520 km
Max Altitude 0 ft / 0 m
Waypoints 2
Social Downloads 0
Likes 0
Share VATSIM

Download

Looking for another format? Having issues loading an existing format? Contact us
Advertisement - Login to hide

Notes

Generated

Route

CYUL CYVM

ID Type Via Altitude Latitude Longitude Leg Dist Tot Dist Heading (true) Name
O CYUL APT - 0 ft / 0 m 45.46250˚ -73.76500˚ - 0 nm - -
O CYVM APT - 0 ft / 0 m 67.54195˚ -64.03806˚ 1360 nm 1360 nm 10° / 18° -

Altitude Profile

Advertisement - Login to hide

Weather


0- 5 10 15 20 25 30 35+ Temperature / ° C

Clouds and Precipitation
Forecast for 2018-05-27 06:00 UTC. Updated 44 minutes ago

Ground ~20,000 ft ~40,000 ft Winds

CYUL

Details ICAO CYUL (YUL)
Name Montreal Pierre E Trudeau Intl
Region Canada
Timezone America/Montreal (UTC-4.0)
Stats Elevation 117 ft / 36 m (AMSL)
Location 45.467269° -73.744028°
Runways 3
Magnetic Variation 14.292° W

METAR

CYUL 270600Z 02011KT 15SM SCT210 BKN250 15/05 A2999 RMK CC4CI2 SLP158

Decode

TAF

TAF CYUL 270238Z 2703/2724 07007KT P6SM FEW060 BKN250 FM271000 05010G20KT P6SM OVC025 BECMG 2713/2715 14012G22KT BKN030 FM272000 14012G22KT P6SM -SHRA VCTS OVC040CB RMK NXT FCST BY 270600Z

Decode

Departure Runways

ID Width Length Bearing (true) Bearing (mag) Surface Threshold Offset Overrun Length
06L 200 ft / 61 m 11,020 ft / 3,359 m 42.62° 56.91° Asphalt 0 ft / 0 m 0 ft / 0 m
06R 200 ft / 61 m 9,706 ft / 2,958 m 41.23° 55.52° Asphalt 0 ft / 0 m 0 ft / 0 m
10 200 ft / 61 m 6,831 ft / 2,082 m 87.45° 101.74° Asphalt 0 ft / 0 m 0 ft / 0 m
24L 200 ft / 61 m 9,706 ft / 2,958 m 221.25° 235.54° Asphalt 0 ft / 0 m 0 ft / 0 m
24R 200 ft / 61 m 11,020 ft / 3,359 m 222.64° 236.93° Asphalt 0 ft / 0 m 0 ft / 0 m
28 200 ft / 61 m 6,831 ft / 2,082 m 267.47° 281.76° Asphalt 0 ft / 0 m 0 ft / 0 m

CYVM

Details ICAO CYVM (YVM)
Name QIKIQTARJUAQ
Region Canada
Timezone Unknown (UTC+0.0)
Stats Elevation 21 ft / 6 m (AMSL)
Location 67.546236° -64.030706°
Runways 1
Magnetic Variation 31.933° W

METAR

CYVM 270600Z AUTO 20006KT 9SM OVC055 M04/M07 A2994 RMK SLP140

Decode

TAF

TAF CYVM 270038Z 2701/2713 VRB03KT P6SM SCT015 OVC030 TEMPO 2701/2708 5SM -SN BR OVC015 FM270800 18005KT P6SM SCT030 TEMPO 2708/2713 BKN030 RMK FCST BASED ON AUTO OBS. NXT FCST BY 270700Z

Decode

Destination Runways

ID Width Length Bearing (true) Bearing (mag) Surface Threshold Offset Overrun Length
03T 100 ft / 30 m 3,741 ft / 1,140 m 33.20° 65.13° Gravel 0 ft / 0 m 0 ft / 0 m
21T 100 ft / 30 m 3,741 ft / 1,140 m 213.21° 245.14° Gravel 0 ft / 0 m 0 ft / 0 m

Popular Alternatives